sensor_id;sensor_type;location;lat;lon;timestamp;temperature;humidity
80426;DHT22;69766;51.476;5.704;2024-03-08T00:04:22;3.10;99.90
80426;DHT22;69766;51.476;5.704;2024-03-08T00:07:41;3.10;99.90
80426;DHT22;69766;51.476;5.704;2024-03-08T01:40:53;2.40;99.90
80426;DHT22;69766;51.476;5.704;2024-03-08T01:43:36;2.40;99.90
80426;DHT22;69766;51.476;5.704;2024-03-08T01:53:11;2.20;99.90
80426;DHT22;69766;51.476;5.704;2024-03-08T01:56:24;2.30;99.90
80426;DHT22;69766;51.476;5.704;2024-03-08T01:59:24;2.20;99.90
80426;DHT22;69766;51.476;5.704;2024-03-08T02:12:16;2.10;99.90
80426;DHT22;69766;51.476;5.704;2024-03-08T02:14:56;2.00;99.90
80426;DHT22;69766;51.476;5.704;2024-03-08T02:17:47;2.10;99.90
80426;DHT22;69766;51.476;5.704;2024-03-08T02:20:40;2.10;99.90
80426;DHT22;69766;51.476;5.704;2024-03-08T02:23:09;2.20;99.90
80426;DHT22;69766;51.476;5.704;2024-03-08T02:25:36;2.10;99.90
80426;DHT22;69766;51.476;5.704;2024-03-08T02:28:02;2.20;99.90
80426;DHT22;69766;51.476;5.704;2024-03-08T02:30:32;2.20;99.90
80426;DHT22;69766;51.476;5.704;2024-03-08T02:33:00;2.10;99.90
80426;DHT22;69766;51.476;5.704;2024-03-08T02:36:07;1.90;99.90
80426;DHT22;69766;51.476;5.704;2024-03-08T02:38:52;1.90;99.90
80426;DHT22;69766;51.476;5.704;2024-03-08T02:41:21;1.80;99.90
80426;DHT22;69766;51.476;5.704;2024-03-08T02:44:00;1.90;99.90
80426;DHT22;69766;51.476;5.704;2024-03-08T02:46:26;2.00;99.90
80426;DHT22;69766;51.476;5.704;2024-03-08T02:48:55;2.00;99.90
80426;DHT22;69766;51.476;5.704;2024-03-08T02:51:25;1.90;99.90
80426;DHT22;69766;51.476;5.704;2024-03-08T02:53:52;1.90;99.90
80426;DHT22;69766;51.476;5.704;2024-03-08T02:56:18;2.00;99.90
80426;DHT22;69766;51.476;5.704;2024-03-08T02:58:44;1.90;99.90
80426;DHT22;69766;51.476;5.704;2024-03-08T03:01:14;2.10;99.90
80426;DHT22;69766;51.476;5.704;2024-03-08T03:03:41;1.90;99.90
80426;DHT22;69766;51.476;5.704;2024-03-08T03:06:13;2.00;99.90
80426;DHT22;69766;51.476;5.704;2024-03-08T03:08:47;1.80;99.90
80426;DHT22;69766;51.476;5.704;2024-03-08T03:14:26;1.70;99.90
80426;DHT22;69766;51.476;5.704;2024-03-08T03:17:09;1.60;99.90
80426;DHT22;69766;51.476;5.704;2024-03-08T03:19:44;1.70;99.90
80426;DHT22;69766;51.476;5.704;2024-03-08T03:22:13;1.80;99.90
80426;DHT22;69766;51.476;5.704;2024-03-08T03:24:41;1.70;99.90
80426;DHT22;69766;51.476;5.704;2024-03-08T03:27:08;1.70;99.90
80426;DHT22;69766;51.476;5.704;2024-03-08T03:29:40;1.80;99.90
80426;DHT22;69766;51.476;5.704;2024-03-08T03:32:12;1.70;99.90
80426;DHT22;69766;51.476;5.704;2024-03-08T03:34:38;1.80;99.90
80426;DHT22;69766;51.476;5.704;2024-03-08T03:37:05;1.70;99.90
80426;DHT22;69766;51.476;5.704;2024-03-08T03:39:32;1.80;99.90
80426;DHT22;69766;51.476;5.704;2024-03-08T03:42:00;1.70;99.90
80426;DHT22;69766;51.476;5.704;2024-03-08T03:44:30;1.60;99.90
80426;DHT22;69766;51.476;5.704;2024-03-08T03:50:18;1.60;99.90
80426;DHT22;69766;51.476;5.704;2024-03-08T03:52:58;1.60;99.90
80426;DHT22;69766;51.476;5.704;2024-03-08T03:55:27;1.60;99.90
80426;DHT22;69766;51.476;5.704;2024-03-08T03:57:54;1.60;99.90
80426;DHT22;69766;51.476;5.704;2024-03-08T04:00:20;1.60;99.90
80426;DHT22;69766;51.476;5.704;2024-03-08T04:02:46;1.60;99.90
80426;DHT22;69766;51.476;5.704;2024-03-08T04:05:12;1.60;99.90
80426;DHT22;69766;51.476;5.704;2024-03-08T04:07:46;1.50;99.90
80426;DHT22;69766;51.476;5.704;2024-03-08T04:10:24;1.50;99.90
80426;DHT22;69766;51.476;5.704;2024-03-08T04:12:49;1.50;99.90
80426;DHT22;69766;51.476;5.704;2024-03-08T04:15:15;1.50;99.90
80426;DHT22;69766;51.476;5.704;2024-03-08T04:17:41;1.50;99.90
80426;DHT22;69766;51.476;5.704;2024-03-08T04:20:07;1.40;99.90
80426;DHT22;69766;51.476;5.704;2024-03-08T04:22:36;1.50;99.90
80426;DHT22;69766;51.476;5.704;2024-03-08T04:25:03;1.50;99.90
80426;DHT22;69766;51.476;5.704;2024-03-08T04:27:29;1.50;99.90
80426;DHT22;69766;51.476;5.704;2024-03-08T04:29:55;1.40;99.90
80426;DHT22;69766;51.476;5.704;2024-03-08T04:32:21;1.40;99.90
80426;DHT22;69766;51.476;5.704;2024-03-08T04:34:47;1.40;99.90
80426;DHT22;69766;51.476;5.704;2024-03-08T04:37:16;1.30;99.90
80426;DHT22;69766;51.476;5.704;2024-03-08T04:39:47;1.30;99.90
80426;DHT22;69766;51.476;5.704;2024-03-08T04:42:14;1.30;99.90
80426;DHT22;69766;51.476;5.704;2024-03-08T04:44:40;1.30;99.90
80426;DHT22;69766;51.476;5.704;2024-03-08T04:47:06;1.20;99.90
80426;DHT22;69766;51.476;5.704;2024-03-08T04:49:32;1.30;99.90
80426;DHT22;69766;51.476;5.704;2024-03-08T04:52:04;1.30;99.90
80426;DHT22;69766;51.476;5.704;2024-03-08T04:54:30;1.20;99.90
80426;DHT22;69766;51.476;5.704;2024-03-08T04:56:56;1.20;99.90
80426;DHT22;69766;51.476;5.704;2024-03-08T04:59:22;1.20;99.90
80426;DHT22;69766;51.476;5.704;2024-03-08T05:01:48;1.20;99.90
80426;DHT22;69766;51.476;5.704;2024-03-08T05:04:14;1.20;99.90
80426;DHT22;69766;51.476;5.704;2024-03-08T05:06:41;1.20;99.90
80426;DHT22;69766;51.476;5.704;2024-03-08T05:09:07;1.10;99.90
80426;DHT22;69766;51.476;5.704;2024-03-08T05:11:43;1.10;99.90
80426;DHT22;69766;51.476;5.704;2024-03-08T05:14:10;1.20;99.90
80426;DHT22;69766;51.476;5.704;2024-03-08T05:16:35;1.20;99.90
80426;DHT22;69766;51.476;5.704;2024-03-08T05:19:02;1.20;99.90
80426;DHT22;69766;51.476;5.704;2024-03-08T05:21:28;1.20;99.90
80426;DHT22;69766;51.476;5.704;2024-03-08T05:23:54;1.20;99.90
80426;DHT22;69766;51.476;5.704;2024-03-08T05:26:20;1.10;99.90
80426;DHT22;69766;51.476;5.704;2024-03-08T05:28:48;1.10;99.90
80426;DHT22;69766;51.476;5.704;2024-03-08T05:31:23;1.20;99.90
80426;DHT22;69766;51.476;5.704;2024-03-08T05:33:49;1.20;99.90
80426;DHT22;69766;51.476;5.704;2024-03-08T05:36:15;1.20;99.90
80426;DHT22;69766;51.476;5.704;2024-03-08T05:38:47;1.10;99.90
80426;DHT22;69766;51.476;5.704;2024-03-08T05:41:14;1.10;99.90
80426;DHT22;69766;51.476;5.704;2024-03-08T05:43:40;1.10;99.90
80426;DHT22;69766;51.476;5.704;2024-03-08T05:46:07;1.00;99.90
80426;DHT22;69766;51.476;5.704;2024-03-08T05:48:33;1.10;99.90
80426;DHT22;69766;51.476;5.704;2024-03-08T05:51:00;1.00;99.90
80426;DHT22;69766;51.476;5.704;2024-03-08T05:53:25;1.00;99.90
80426;DHT22;69766;51.476;5.704;2024-03-08T05:55:52;1.00;99.90
80426;DHT22;69766;51.476;5.704;2024-03-08T05:58:17;1.00;99.90
80426;DHT22;69766;51.476;5.704;2024-03-08T06:00:43;1.10;99.90
80426;DHT22;69766;51.476;5.704;2024-03-08T06:03:11;1.00;99.90
80426;DHT22;69766;51.476;5.704;2024-03-08T06:05:37;1.10;99.90
80426;DHT22;69766;51.476;5.704;2024-03-08T06:08:06;1.10;99.90
80426;DHT22;69766;51.476;5.704;2024-03-08T06:10:33;1.00;99.90
80426;DHT22;69766;51.476;5.704;2024-03-08T06:12:59;1.00;99.90
80426;DHT22;69766;51.476;5.704;2024-03-08T06:15:25;1.00;99.90
80426;DHT22;69766;51.476;5.704;2024-03-08T06:17:51;1.10;99.90
80426;DHT22;69766;51.476;5.704;2024-03-08T06:20:19;1.10;99.90
80426;DHT22;69766;51.476;5.704;2024-03-08T06:22:45;1.00;99.90
80426;DHT22;69766;51.476;5.704;2024-03-08T06:25:11;1.00;99.90
80426;DHT22;69766;51.476;5.704;2024-03-08T06:27:42;1.10;99.90
80426;DHT22;69766;51.476;5.704;2024-03-08T06:30:12;1.00;99.90
80426;DHT22;69766;51.476;5.704;2024-03-08T06:32:38;1.00;99.90
80426;DHT22;69766;51.476;5.704;2024-03-08T06:35:07;1.10;99.90
80426;DHT22;69766;51.476;5.704;2024-03-08T06:37:33;1.00;99.90
80426;DHT22;69766;51.476;5.704;2024-03-08T06:40:00;1.10;99.90
80426;DHT22;69766;51.476;5.704;2024-03-08T06:42:27;1.10;99.90
80426;DHT22;69766;51.476;5.704;2024-03-08T06:44:53;1.10;99.90
80426;DHT22;69766;51.476;5.704;2024-03-08T06:47:21;1.10;99.90
80426;DHT22;69766;51.476;5.704;2024-03-08T06:49:51;1.10;99.90
80426;DHT22;69766;51.476;5.704;2024-03-08T06:52:17;1.30;99.90
80426;DHT22;69766;51.476;5.704;2024-03-08T06:54:43;1.30;99.90
80426;DHT22;69766;51.476;5.704;2024-03-08T06:57:09;1.30;99.90
80426;DHT22;69766;51.476;5.704;2024-03-08T06:59:36;1.30;99.90
80426;DHT22;69766;51.476;5.704;2024-03-08T07:02:02;1.40;99.90
80426;DHT22;69766;51.476;5.704;2024-03-08T07:04:28;1.50;99.90
80426;DHT22;69766;51.476;5.704;2024-03-08T07:06:59;1.60;99.90
80426;DHT22;69766;51.476;5.704;2024-03-08T07:09:25;1.60;99.90
80426;DHT22;69766;51.476;5.704;2024-03-08T07:11:51;1.70;99.90
80426;DHT22;69766;51.476;5.704;2024-03-08T07:14:23;1.70;99.90
80426;DHT22;69766;51.476;5.704;2024-03-08T07:16:49;1.70;99.90
80426;DHT22;69766;51.476;5.704;2024-03-08T07:19:15;1.90;99.90
80426;DHT22;69766;51.476;5.704;2024-03-08T07:21:45;2.00;99.90
80426;DHT22;69766;51.476;5.704;2024-03-08T07:24:12;1.90;99.90
80426;DHT22;69766;51.476;5.704;2024-03-08T07:27:06;2.10;99.90
80426;DHT22;69766;51.476;5.704;2024-03-08T07:29:44;2.20;99.90
80426;DHT22;69766;51.476;5.704;2024-03-08T07:32:26;2.20;99.90
80426;DHT22;69766;51.476;5.704;2024-03-08T07:35:07;2.20;99.90
80426;DHT22;69766;51.476;5.704;2024-03-08T07:37:33;2.30;99.90
80426;DHT22;69766;51.476;5.704;2024-03-08T07:40:08;2.30;99.90
80426;DHT22;69766;51.476;5.704;2024-03-08T07:42:53;2.50;99.90
80426;DHT22;69766;51.476;5.704;2024-03-08T07:45:29;2.50;99.90
80426;DHT22;69766;51.476;5.704;2024-03-08T07:51:08;2.80;99.90
80426;DHT22;69766;51.476;5.704;2024-03-08T07:53:35;2.90;99.90
80426;DHT22;69766;51.476;5.704;2024-03-08T07:56:00;2.90;99.90
80426;DHT22;69766;51.476;5.704;2024-03-08T07:58:35;3.20;99.90
80426;DHT22;69766;51.476;5.704;2024-03-08T08:01:01;3.40;99.90
80426;DHT22;69766;51.476;5.704;2024-03-08T08:03:49;3.50;99.90
80426;DHT22;69766;51.476;5.704;2024-03-08T08:06:15;3.50;99.90
80426;DHT22;69766;51.476;5.704;2024-03-08T08:15:35;3.70;99.90
80426;DHT22;69766;51.476;5.704;2024-03-08T08:18:01;4.10;99.90
80426;DHT22;69766;51.476;5.704;2024-03-08T08:24:11;4.60;99.90
80426;DHT22;69766;51.476;5.704;2024-03-08T08:26:44;4.80;99.90
80426;DHT22;69766;51.476;5.704;2024-03-08T08:29:38;5.10;99.90
80426;DHT22;69766;51.476;5.704;2024-03-08T08:35:42;4.70;99.90
80426;DHT22;69766;51.476;5.704;2024-03-08T08:38:22;4.80;99.90
80426;DHT22;69766;51.476;5.704;2024-03-08T08:40:48;4.90;99.90
80426;DHT22;69766;51.476;5.704;2024-03-08T08:43:21;5.60;99.90
80426;DHT22;69766;51.476;5.704;2024-03-08T08:46:11;5.90;99.90
80426;DHT22;69766;51.476;5.704;2024-03-08T08:48:39;6.40;99.90
80426;DHT22;69766;51.476;5.704;2024-03-08T08:54:44;6.00;99.90
80426;DHT22;69766;51.476;5.704;2024-03-08T08:57:13;6.90;99.90
80426;DHT22;69766;51.476;5.704;2024-03-08T09:00:08;6.70;99.90
80426;DHT22;69766;51.476;5.704;2024-03-08T09:02:53;7.20;99.90
80426;DHT22;69766;51.476;5.704;2024-03-08T09:05:21;6.60;99.90
80426;DHT22;69766;51.476;5.704;2024-03-08T09:07:49;6.60;99.90
80426;DHT22;69766;51.476;5.704;2024-03-08T09:13:45;6.90;99.90
80426;DHT22;69766;51.476;5.704;2024-03-08T09:16:14;6.80;99.90
80426;DHT22;69766;51.476;5.704;2024-03-08T09:18:51;6.70;99.90
80426;DHT22;69766;51.476;5.704;2024-03-08T09:28:31;7.50;99.90
80426;DHT22;69766;51.476;5.704;2024-03-08T09:30:57;7.60;99.90
80426;DHT22;69766;51.476;5.704;2024-03-08T09:33:24;8.00;99.90
80426;DHT22;69766;51.476;5.704;2024-03-08T09:35:50;8.10;99.90
80426;DHT22;69766;51.476;5.704;2024-03-08T09:38:17;7.80;99.90
80426;DHT22;69766;51.476;5.704;2024-03-08T09:44:11;8.30;99.90
80426;DHT22;69766;51.476;5.704;2024-03-08T09:46:37;8.20;99.90
80426;DHT22;69766;51.476;5.704;2024-03-08T09:49:03;8.50;99.90
80426;DHT22;69766;51.476;5.704;2024-03-08T09:51:33;8.90;99.90
80426;DHT22;69766;51.476;5.704;2024-03-08T09:54:01;9.40;99.90
80426;DHT22;69766;51.476;5.704;2024-03-08T09:56:32;9.00;99.90
80426;DHT22;69766;51.476;5.704;2024-03-08T09:59:02;8.50;99.90
80426;DHT22;69766;51.476;5.704;2024-03-08T10:02:00;9.40;99.90
80426;DHT22;69766;51.476;5.704;2024-03-08T10:04:28;9.00;99.90
80426;DHT22;69766;51.476;5.704;2024-03-08T10:06:58;9.90;99.90
80426;DHT22;69766;51.476;5.704;2024-03-08T10:09:25;10.30;99.90
80426;DHT22;69766;51.476;5.704;2024-03-08T10:11:59;10.90;96.90
80426;DHT22;69766;51.476;5.704;2024-03-08T10:14:30;10.40;98.10
80426;DHT22;69766;51.476;5.704;2024-03-08T10:16:57;9.90;99.90
80426;DHT22;69766;51.476;5.704;2024-03-08T10:19:28;9.40;99.90
80426;DHT22;69766;51.476;5.704;2024-03-08T10:21:59;10.20;99.90
80426;DHT22;69766;51.476;5.704;2024-03-08T10:24:27;9.70;99.90
80426;DHT22;69766;51.476;5.704;2024-03-08T10:26:59;8.90;99.90
80426;DHT22;69766;51.476;5.704;2024-03-08T10:40:01;8.80;99.90
80426;DHT22;69766;51.476;5.704;2024-03-08T10:52:22;11.30;95.90
80426;DHT22;69766;51.476;5.704;2024-03-08T10:54:57;10.40;99.90
80426;DHT22;69766;51.476;5.704;2024-03-08T10:57:27;10.00;99.90
80426;DHT22;69766;51.476;5.704;2024-03-08T10:59:55;9.90;99.90
80426;DHT22;69766;51.476;5.704;2024-03-08T11:02:36;9.80;99.90
80426;DHT22;69766;51.476;5.704;2024-03-08T11:05:32;9.50;99.90
80426;DHT22;69766;51.476;5.704;2024-03-08T11:08:23;9.90;99.90
80426;DHT22;69766;51.476;5.704;2024-03-08T11:10:55;10.00;99.30
80426;DHT22;69766;51.476;5.704;2024-03-08T11:13:43;10.10;95.70
80426;DHT22;69766;51.476;5.704;2024-03-08T11:21:30;11.90;76.70
80426;DHT22;69766;51.476;5.704;2024-03-08T11:24:14;11.90;75.70
80426;DHT22;69766;51.476;5.704;2024-03-08T11:26:53;11.50;83.60
80426;DHT22;69766;51.476;5.704;2024-03-08T11:29:35;11.00;79.20
80426;DHT22;69766;51.476;5.704;2024-03-08T11:41:56;10.10;81.70
80426;DHT22;69766;51.476;5.704;2024-03-08T11:44:27;10.30;83.00
80426;DHT22;69766;51.476;5.704;2024-03-08T11:46:53;10.50;86.70
80426;DHT22;69766;51.476;5.704;2024-03-08T11:49:22;10.50;84.20
80426;DHT22;69766;51.476;5.704;2024-03-08T11:51:52;10.30;84.70
80426;DHT22;69766;51.476;5.704;2024-03-08T11:54:19;10.50;89.50
80426;DHT22;69766;51.476;5.704;2024-03-08T11:56:45;10.50;93.40
80426;DHT22;69766;51.476;5.704;2024-03-08T11:59:20;10.50;88.00
80426;DHT22;69766;51.476;5.704;2024-03-08T12:02:05;10.70;84.90
80426;DHT22;69766;51.476;5.704;2024-03-08T12:04:32;11.10;84.00
80426;DHT22;69766;51.476;5.704;2024-03-08T12:07:02;11.20;83.50
80426;DHT22;69766;51.476;5.704;2024-03-08T12:09:36;11.50;77.10
80426;DHT22;69766;51.476;5.704;2024-03-08T12:12:06;11.20;79.80
80426;DHT22;69766;51.476;5.704;2024-03-08T12:14:37;11.20;81.80
80426;DHT22;69766;51.476;5.704;2024-03-08T12:17:04;11.00;80.40
80426;DHT22;69766;51.476;5.704;2024-03-08T12:19:57;11.30;78.50
80426;DHT22;69766;51.476;5.704;2024-03-08T12:22:41;11.40;73.80
80426;DHT22;69766;51.476;5.704;2024-03-08T12:25:11;12.20;72.20
80426;DHT22;69766;51.476;5.704;2024-03-08T12:27:49;13.20;70.60
80426;DHT22;69766;51.476;5.704;2024-03-08T12:30:26;13.70;64.20
80426;DHT22;69766;51.476;5.704;2024-03-08T12:33:09;13.70;65.30
80426;DHT22;69766;51.476;5.704;2024-03-08T12:35:38;13.80;62.90
80426;DHT22;69766;51.476;5.704;2024-03-08T12:38:04;14.10;64.40
80426;DHT22;69766;51.476;5.704;2024-03-08T12:40:32;14.60;59.70
80426;DHT22;69766;51.476;5.704;2024-03-08T12:43:06;14.00;61.70
80426;DHT22;69766;51.476;5.704;2024-03-08T12:45:32;14.50;59.10
80426;DHT22;69766;51.476;5.704;2024-03-08T12:47:58;14.50;60.10
80426;DHT22;69766;51.476;5.704;2024-03-08T12:50:25;15.20;56.50
80426;DHT22;69766;51.476;5.704;2024-03-08T12:52:51;16.30;55.40
80426;DHT22;69766;51.476;5.704;2024-03-08T12:55:27;17.20;52.40
80426;DHT22;69766;51.476;5.704;2024-03-08T12:57:59;16.80;52.20
80426;DHT22;69766;51.476;5.704;2024-03-08T13:00:52;16.30;55.20
80426;DHT22;69766;51.476;5.704;2024-03-08T13:06:19;15.40;55.40
80426;DHT22;69766;51.476;5.704;2024-03-08T13:08:50;15.80;56.30
80426;DHT22;69766;51.476;5.704;2024-03-08T13:11:27;16.30;54.80
80426;DHT22;69766;51.476;5.704;2024-03-08T13:14:13;15.70;55.20
80426;DHT22;69766;51.476;5.704;2024-03-08T13:16:51;15.90;54.80
80426;DHT22;69766;51.476;5.704;2024-03-08T13:19:17;15.90;55.10
80426;DHT22;69766;51.476;5.704;2024-03-08T13:21:43;16.70;53.50
80426;DHT22;69766;51.476;5.704;2024-03-08T13:24:09;17.60;50.90
80426;DHT22;69766;51.476;5.704;2024-03-08T13:26:40;16.80;54.00
80426;DHT22;69766;51.476;5.704;2024-03-08T13:29:28;16.30;53.30
80426;DHT22;69766;51.476;5.704;2024-03-08T13:32:11;16.20;53.80
80426;DHT22;69766;51.476;5.704;2024-03-08T13:34:47;15.20;53.30
80426;DHT22;69766;51.476;5.704;2024-03-08T13:37:19;15.30;54.60
80426;DHT22;69766;51.476;5.704;2024-03-08T13:40:05;16.60;52.70
80426;DHT22;69766;51.476;5.704;2024-03-08T13:46:17;16.40;53.20
80426;DHT22;69766;51.476;5.704;2024-03-08T13:48:54;16.00;52.40
80426;DHT22;69766;51.476;5.704;2024-03-08T13:51:31;16.10;53.90
80426;DHT22;69766;51.476;5.704;2024-03-08T14:00:29;15.40;54.50
80426;DHT22;69766;51.476;5.704;2024-03-08T14:03:26;16.00;53.80
80426;DHT22;69766;51.476;5.704;2024-03-08T14:06:04;16.20;53.90
80426;DHT22;69766;51.476;5.704;2024-03-08T14:08:38;16.00;51.90
80426;DHT22;69766;51.476;5.704;2024-03-08T14:11:05;15.50;53.70
80426;DHT22;69766;51.476;5.704;2024-03-08T14:13:44;15.50;53.40
80426;DHT22;69766;51.476;5.704;2024-03-08T14:16:14;15.30;52.80
80426;DHT22;69766;51.476;5.704;2024-03-08T14:18:53;14.90;55.00
80426;DHT22;69766;51.476;5.704;2024-03-08T14:21:21;15.30;54.60
80426;DHT22;69766;51.476;5.704;2024-03-08T14:23:50;15.30;53.70
80426;DHT22;69766;51.476;5.704;2024-03-08T14:26:19;14.70;56.50
80426;DHT22;69766;51.476;5.704;2024-03-08T14:28:50;15.10;53.70
80426;DHT22;69766;51.476;5.704;2024-03-08T14:34:34;16.20;51.70
80426;DHT22;69766;51.476;5.704;2024-03-08T14:37:26;16.60;51.50
80426;DHT22;69766;51.476;5.704;2024-03-08T14:43:03;15.80;51.90
80426;DHT22;69766;51.476;5.704;2024-03-08T14:52:50;15.70;52.90
80426;DHT22;69766;51.476;5.704;2024-03-08T14:59:01;15.70;53.20
80426;DHT22;69766;51.476;5.704;2024-03-08T15:02:02;16.20;52.30
80426;DHT22;69766;51.476;5.704;2024-03-08T15:05:09;15.40;51.50
80426;DHT22;69766;51.476;5.704;2024-03-08T15:07:39;14.90;53.80
80426;DHT22;69766;51.476;5.704;2024-03-08T15:10:15;15.50;52.20
80426;DHT22;69766;51.476;5.704;2024-03-08T15:12:52;14.80;53.60
80426;DHT22;69766;51.476;5.704;2024-03-08T15:15:21;14.50;54.20
80426;DHT22;69766;51.476;5.704;2024-03-08T15:17:50;14.30;53.40
80426;DHT22;69766;51.476;5.704;2024-03-08T15:20:17;14.60;55.70
80426;DHT22;69766;51.476;5.704;2024-03-08T15:22:59;14.30;54.60
80426;DHT22;69766;51.476;5.704;2024-03-08T15:25:28;14.80;54.40
80426;DHT22;69766;51.476;5.704;2024-03-08T15:28:05;15.10;52.90
80426;DHT22;69766;51.476;5.704;2024-03-08T15:30:39;14.60;53.70
80426;DHT22;69766;51.476;5.704;2024-03-08T15:33:15;14.60;54.20
80426;DHT22;69766;51.476;5.704;2024-03-08T15:35:50;14.30;53.90
80426;DHT22;69766;51.476;5.704;2024-03-08T15:38:25;14.30;55.30
80426;DHT22;69766;51.476;5.704;2024-03-08T15:40:56;14.20;55.20
80426;DHT22;69766;51.476;5.704;2024-03-08T15:43:24;14.20;55.60
80426;DHT22;69766;51.476;5.704;2024-03-08T15:46:11;14.00;54.20
80426;DHT22;69766;51.476;5.704;2024-03-08T15:48:42;13.50;57.50
80426;DHT22;69766;51.476;5.704;2024-03-08T16:01:50;13.90;55.80
80426;DHT22;69766;51.476;5.704;2024-03-08T16:07:47;13.20;58.00
80426;DHT22;69766;51.476;5.704;2024-03-08T16:10:18;12.90;58.10
80426;DHT22;69766;51.476;5.704;2024-03-08T16:13:27;13.00;59.10
80426;DHT22;69766;51.476;5.704;2024-03-08T16:16:26;12.40;59.00
80426;DHT22;69766;51.476;5.704;2024-03-08T16:19:14;12.70;58.80
80426;DHT22;69766;51.476;5.704;2024-03-08T16:31:52;11.80;60.50
80426;DHT22;69766;51.476;5.704;2024-03-08T16:42:03;11.40;64.70
80426;DHT22;69766;51.476;5.704;2024-03-08T16:48:33;11.10;64.00
80426;DHT22;69766;51.476;5.704;2024-03-08T16:51:08;10.90;64.70
80426;DHT22;69766;51.476;5.704;2024-03-08T16:57:47;10.60;67.20
80426;DHT22;69766;51.476;5.704;2024-03-08T17:04:14;10.50;69.00
80426;DHT22;69766;51.476;5.704;2024-03-08T17:10:17;10.20;75.50
80426;DHT22;69766;51.476;5.704;2024-03-08T17:26:33;9.70;90.80
80426;DHT22;69766;51.476;5.704;2024-03-08T17:28:58;9.60;91.20
80426;DHT22;69766;51.476;5.704;2024-03-08T17:31:24;9.40;93.80
80426;DHT22;69766;51.476;5.704;2024-03-08T17:33:50;9.30;98.40
80426;DHT22;69766;51.476;5.704;2024-03-08T17:36:17;9.30;99.00
80426;DHT22;69766;51.476;5.704;2024-03-08T17:38:43;9.20;99.90
80426;DHT22;69766;51.476;5.704;2024-03-08T17:41:13;9.10;99.90
80426;DHT22;69766;51.476;5.704;2024-03-08T17:43:58;9.00;99.90
80426;DHT22;69766;51.476;5.704;2024-03-08T17:46:50;8.90;99.90
80426;DHT22;69766;51.476;5.704;2024-03-08T17:49:48;8.80;99.90
80426;DHT22;69766;51.476;5.704;2024-03-08T17:52:39;8.80;99.90
80426;DHT22;69766;51.476;5.704;2024-03-08T17:55:12;8.80;99.90
80426;DHT22;69766;51.476;5.704;2024-03-08T17:57:48;8.70;99.90
80426;DHT22;69766;51.476;5.704;2024-03-08T18:00:17;8.60;99.90
80426;DHT22;69766;51.476;5.704;2024-03-08T18:02:49;8.60;99.90
80426;DHT22;69766;51.476;5.704;2024-03-08T18:05:23;8.50;99.90
80426;DHT22;69766;51.476;5.704;2024-03-08T18:07:53;8.50;99.90
80426;DHT22;69766;51.476;5.704;2024-03-08T18:10:20;8.40;99.90
80426;DHT22;69766;51.476;5.704;2024-03-08T18:12:49;8.40;99.90
80426;DHT22;69766;51.476;5.704;2024-03-08T18:15:23;8.40;99.90
80426;DHT22;69766;51.476;5.704;2024-03-08T18:18:00;8.40;99.90
80426;DHT22;69766;51.476;5.704;2024-03-08T18:20:32;8.40;99.90
80426;DHT22;69766;51.476;5.704;2024-03-08T18:23:37;8.40;99.90
80426;DHT22;69766;51.476;5.704;2024-03-08T18:26:16;8.50;99.90
80426;DHT22;69766;51.476;5.704;2024-03-08T18:29:06;8.30;99.90
80426;DHT22;69766;51.476;5.704;2024-03-08T18:31:53;8.20;99.90
80426;DHT22;69766;51.476;5.704;2024-03-08T18:34:34;8.20;99.90
80426;DHT22;69766;51.476;5.704;2024-03-08T18:37:16;8.10;99.90
80426;DHT22;69766;51.476;5.704;2024-03-08T18:40:11;8.00;99.90
80426;DHT22;69766;51.476;5.704;2024-03-08T18:43:06;8.00;99.90
80426;DHT22;69766;51.476;5.704;2024-03-08T18:46:15;7.80;99.90
80426;DHT22;69766;51.476;5.704;2024-03-08T18:49:15;7.70;99.90
80426;DHT22;69766;51.476;5.704;2024-03-08T19:03:15;7.40;99.90
80426;DHT22;69766;51.476;5.704;2024-03-08T19:06:27;7.30;99.90
80426;DHT22;69766;51.476;5.704;2024-03-08T20:20:30;5.50;99.90
80426;DHT22;69766;51.476;5.704;2024-03-08T20:23:38;5.50;99.90
80426;DHT22;69766;51.476;5.704;2024-03-08T20:27:03;5.60;99.90
80426;DHT22;69766;51.476;5.704;2024-03-08T20:38:22;5.50;99.90
80426;DHT22;69766;51.476;5.704;2024-03-08T20:41:30;5.40;99.90
80426;DHT22;69766;51.476;5.704;2024-03-08T20:44:47;5.30;99.90
80426;DHT22;69766;51.476;5.704;2024-03-08T21:12:54;5.10;99.90
80426;DHT22;69766;51.476;5.704;2024-03-08T21:37:22;4.80;99.90
80426;DHT22;69766;51.476;5.704;2024-03-08T21:40:22;4.80;99.90
80426;DHT22;69766;51.476;5.704;2024-03-08T21:47:04;4.70;99.90
80426;DHT22;69766;51.476;5.704;2024-03-08T22:35:07;4.50;99.90
80426;DHT22;69766;51.476;5.704;2024-03-08T22:52:06;4.80;99.90
80426;DHT22;69766;51.476;5.704;2024-03-08T23:12:10;4.50;99.90
